Time;durP1;ratioP1;P1;durP2;ratioP2;P2;SDS_P1;SDS_P2;PMS_P1;PMS_P2;Temp;Humidity;BMP_temperature;BMP_pressure;BME280_temperature;BME280_humidity;BME280_pressure;Samples;Min_cycle;Max_cycle;Signal;HPM_P1;HPM_P2
2021/06/27 00:00:41;;;;;;;9.80;7.72;;;;;;;15.00;100.00;95862.28;1014989;29;20020;-71
2021/06/27 00:01:12;;;;;;;9.50;7.57;;;;;;;14.98;100.00;95859.91;1019483;29;20040;-71
2021/06/27 00:01:42;;;;;;;9.63;7.47;;;;;;;14.90;100.00;95844.72;1016883;29;20086;-70
2021/06/27 00:02:13;;;;;;;9.05;7.63;;;;;;;15.00;100.00;95857.78;1017281;29;20020;-71
2021/06/27 00:02:46;;;;;;;9.60;7.47;;;;;;;14.94;100.00;95848.34;1018914;29;20098;-71
2021/06/27 00:03:17;;;;;;;9.27;7.95;;;;;;;14.99;100.00;95856.19;1020002;28;20023;-70
2021/06/27 00:03:48;;;;;;;8.63;7.72;;;;;;;14.99;100.00;95855.41;1018531;29;20203;-69
2021/06/27 00:04:19;;;;;;;8.70;7.68;;;;;;;15.00;100.00;95859.63;1018870;29;20024;-71
2021/06/27 00:04:49;;;;;;;9.00;8.10;;;;;;;14.92;100.00;95849.69;1015071;29;20525;-70
2021/06/27 00:05:21;;;;;;;8.57;7.30;;;;;;;14.94;100.00;95848.34;1022660;29;20035;-70
2021/06/27 00:05:51;;;;;;;10.38;7.70;;;;;;;14.90;100.00;95851.84;1018845;29;20031;-71
2021/06/27 00:06:22;;;;;;;8.57;7.47;;;;;;;14.96;100.00;95862.06;1022618;29;20054;-70
2021/06/27 00:06:52;;;;;;;9.85;7.47;;;;;;;14.94;100.00;95848.34;1022224;28;20135;-71
2021/06/27 00:07:26;;;;;;;7.93;7.05;;;;;;;14.88;100.00;95844.19;1022756;28;20027;-71
2021/06/27 00:07:57;;;;;;;8.48;7.57;;;;;;;14.89;100.00;95840.50;1022646;28;20027;-71
2021/06/27 00:08:27;;;;;;;8.98;7.68;;;;;;;14.98;100.00;95851.19;1012177;29;20034;-71
2021/06/27 00:08:58;;;;;;;8.90;7.72;;;;;;;14.93;100.00;95846.00;1015091;29;20016;-71
2021/06/27 00:09:29;;;;;;;10.95;7.57;;;;;;;14.94;100.00;95850.19;1014941;29;20024;-71
2021/06/27 00:09:59;;;;;;;12.82;7.65;;;;;;;14.92;100.00;95849.69;1018281;29;20390;-71
2021/06/27 00:10:32;;;;;;;9.75;7.35;;;;;;;14.91;100.00;95851.56;1014959;29;20044;-70
2021/06/27 00:11:05;;;;;;;7.65;6.90;;;;;;;14.93;100.00;95853.94;1014984;29;20447;-70
2021/06/27 00:11:35;;;;;;;10.30;8.63;;;;;;;14.91;100.00;95848.91;1024131;28;20020;-70
2021/06/27 00:12:09;;;;;;;8.85;7.63;;;;;;;14.93;100.00;95856.56;1022658;29;20027;-71
2021/06/27 00:12:40;;;;;;;11.45;8.45;;;;;;;14.91;100.00;95859.47;1018911;29;20110;-71
2021/06/27 00:13:10;;;;;;;10.65;7.65;;;;;;;14.85;100.00;95848.22;1019043;28;20367;-69
2021/06/27 00:13:42;;;;;;;21.33;8.40;;;;;;;14.90;100.00;95857.13;1022541;28;20039;-71
2021/06/27 00:14:13;;;;;;;18.25;8.38;;;;;;;14.90;100.00;95857.91;1018981;29;20024;-70
2021/06/27 00:14:43;;;;;;;12.85;7.78;;;;;;;14.88;100.00;95860.06;1018774;29;20023;-71
2021/06/27 00:15:24;;;;;;;12.77;8.13;;;;;;;14.88;100.00;95852.13;1014361;29;20040;-71
2021/06/27 00:15:55;;;;;;;9.30;6.90;;;;;;;14.85;100.00;95858.78;1014777;29;21269;-71
2021/06/27 00:16:29;;;;;;;8.38;7.57;;;;;;;14.86;100.00;95854.28;1014669;29;20024;-70
2021/06/27 00:16:59;;;;;;;11.27;7.82;;;;;;;14.85;100.00;95850.88;1015493;29;20446;-71
2021/06/27 00:17:29;;;;;;;9.18;7.82;;;;;;;14.85;100.00;95855.34;1020096;28;20059;-71
2021/06/27 00:18:01;;;;;;;9.02;7.70;;;;;;;14.85;100.00;95857.97;1018715;29;20020;-70
2021/06/27 00:18:32;;;;;;;9.80;7.70;;;;;;;14.85;100.00;95855.34;1017637;29;20023;-71
2021/06/27 00:19:03;;;;;;;8.48;7.68;;;;;;;14.84;100.00;95853.78;1018888;29;20474;-71
2021/06/27 00:19:33;;;;;;;8.85;7.43;;;;;;;14.78;100.00;95845.13;1019142;29;20020;-71
2021/06/27 00:20:09;;;;;;;8.10;7.30;;;;;;;14.82;100.00;95851.44;1022272;28;20034;-70
2021/06/27 00:20:42;;;;;;;8.43;7.38;;;;;;;14.83;100.00;95850.34;1021949;29;20057;-71
2021/06/27 00:21:12;;;;;;;7.65;6.80;;;;;;;14.83;100.00;95852.22;1023823;28;20069;-71
2021/06/27 00:21:43;;;;;;;9.13;6.95;;;;;;;14.81;100.00;95851.69;1022617;28;20481;-70
2021/06/27 00:22:13;;;;;;;9.32;7.63;;;;;;;14.81;100.00;95849.84;1018327;29;20030;-70
2021/06/27 00:22:44;;;;;;;8.13;7.32;;;;;;;14.75;100.00;95842.28;1014915;29;20447;-71
2021/06/27 00:23:18;;;;;;;8.75;7.88;;;;;;;14.82;100.00;95850.63;1010594;29;20131;-71
2021/06/27 00:23:49;;;;;;;9.43;7.63;;;;;;;14.78;100.00;95855.69;1018829;28;20012;-70
2021/06/27 00:24:19;;;;;;;10.30;6.90;;;;;;;14.82;100.00;95854.06;1023160;28;20098;-71
2021/06/27 00:24:50;;;;;;;10.90;7.88;;;;;;;14.74;100.00;95841.50;1026675;28;20015;-71
2021/06/27 00:25:22;;;;;;;7.35;6.63;;;;;;;14.84;100.00;95857.19;1026150;28;20029;-71
2021/06/27 00:25:53;;;;;;;8.02;7.18;;;;;;;14.81;100.00;95841.13;1026691;28;20027;-71
2021/06/27 00:26:24;;;;;;;7.95;7.15;;;;;;;14.85;100.00;95853.50;1022211;29;20030;-70
2021/06/27 00:26:55;;;;;;;8.68;7.47;;;;;;;14.79;100.00;95846.72;1016322;29;20107;-71
2021/06/27 00:27:25;;;;;;;8.15;7.30;;;;;;;14.85;100.00;95853.50;1014751;29;20430;-71
2021/06/27 00:27:56;;;;;;;9.32;7.57;;;;;;;14.85;100.00;95853.50;1015133;29;20016;-70
2021/06/27 00:28:26;;;;;;;10.13;7.35;;;;;;;14.84;100.00;95853.78;1014837;29;20020;-70
2021/06/27 00:28:57;;;;;;;8.15;7.00;;;;;;;14.80;100.00;95850.91;1010956;29;20024;-71
2021/06/27 00:29:28;;;;;;;10.10;7.03;;;;;;;14.81;100.00;95849.84;1014802;29;20028;-70
2021/06/27 00:29:58;;;;;;;8.07;7.05;;;;;;;14.81;100.00;95860.41;1014711;29;20032;-71
2021/06/27 00:30:29;;;;;;;8.90;7.20;;;;;;;14.80;100.00;95858.06;1014375;29;20023;-71
2021/06/27 00:31:00;;;;;;;9.40;7.07;;;;;;;14.81;100.00;95854.34;1014951;29;20021;-71
2021/06/27 00:31:33;;;;;;;9.07;7.20;;;;;;;14.82;100.00;95856.72;1019059;28;20553;-71
2021/06/27 00:32:04;;;;;;;9.13;7.45;;;;;;;14.81;100.00;95857.78;1022377;28;20572;-71
2021/06/27 00:32:35;;;;;;;8.90;7.25;;;;;;;14.82;100.00;95855.91;1022635;29;20066;-71
2021/06/27 00:33:05;;;;;;;8.07;7.28;;;;;;;14.78;100.00;95853.06;1018690;29;20540;-71
2021/06/27 00:33:36;;;;;;;9.43;6.68;;;;;;;14.79;100.00;95849.38;1016682;29;20038;-71
2021/06/27 00:34:09;;;;;;;8.55;7.05;;;;;;;14.80;100.00;95853.56;1010908;29;20017;-71
2021/06/27 00:34:40;;;;;;;9.68;7.40;;;;;;;14.80;100.00;95850.91;1015210;29;20102;-71
2021/06/27 00:35:11;;;;;;;7.60;6.78;;;;;;;14.63;100.00;95826.88;1014348;29;20577;-68
2021/06/27 00:35:44;;;;;;;11.52;7.50;;;;;;;14.78;100.00;95850.41;1010838;29;20033;-71
2021/06/27 00:36:18;;;;;;;9.48;7.15;;;;;;;14.73;100.00;95842.56;1010980;29;20025;-70
2021/06/27 00:36:48;;;;;;;8.20;7.10;;;;;;;14.81;100.00;95854.34;1015418;29;20091;-71
2021/06/27 00:37:19;;;;;;;7.85;6.82;;;;;;;14.79;100.00;95852.00;1019400;29;20082;-71
2021/06/27 00:37:49;;;;;;;10.00;7.40;;;;;;;14.71;100.00;95839.41;1018654;29;20019;-71
2021/06/27 00:38:20;;;;;;;8.38;6.75;;;;;;;14.71;100.00;95839.41;1014928;29;20094;-71
2021/06/27 00:38:50;;;;;;;11.00;7.20;;;;;;;14.79;100.00;95846.72;1018126;29;20021;-70
2021/06/27 00:39:21;;;;;;;8.50;7.40;;;;;;;14.78;100.00;95853.06;1014876;29;20470;-71
2021/06/27 00:39:51;;;;;;;8.20;7.28;;;;;;;14.77;100.00;95848.06;1018884;29;20028;-70
2021/06/27 00:40:23;;;;;;;7.93;7.13;;;;;;;14.70;100.00;95845.00;1022692;28;20059;-68
2021/06/27 00:40:54;;;;;;;10.30;6.90;;;;;;;14.74;100.00;95849.41;1021411;28;20051;-71
2021/06/27 00:41:24;;;;;;;8.45;7.15;;;;;;;14.77;100.00;95848.06;1013905;29;20107;-71
2021/06/27 00:41:54;;;;;;;8.35;6.65;;;;;;;14.75;100.00;95853.63;1013841;29;20016;-70
2021/06/27 00:42:25;;;;;;;7.47;6.43;;;;;;;14.74;100.00;95844.13;1014483;29;20020;-71
2021/06/27 00:42:55;;;;;;;8.30;6.88;;;;;;;14.68;100.00;95840.00;1022307;28;20023;-70
2021/06/27 00:43:26;;;;;;;10.15;7.60;;;;;;;14.73;100.00;95847.06;1022130;28;20646;-71
2021/06/27 00:43:56;;;;;;;9.38;6.97;;;;;;;14.74;100.00;95846.78;1016802;29;20027;-71
2021/06/27 00:44:30;;;;;;;7.88;7.07;;;;;;;14.73;100.00;95845.22;1017941;29;20027;-71
2021/06/27 00:45:01;;;;;;;7.85;7.05;;;;;;;14.76;100.00;95849.16;1015004;29;20027;-71
2021/06/27 00:45:32;;;;;;;9.98;7.07;;;;;;;14.74;100.00;95849.41;1010448;29;20494;-71
2021/06/27 00:46:02;;;;;;;8.35;7.45;;;;;;;14.73;100.00;95839.94;1010990;29;20103;-71
2021/06/27 00:46:33;;;;;;;8.20;6.90;;;;;;;14.64;100.00;95825.00;1007166;29;20017;-71
2021/06/27 00:47:04;;;;;;;8.18;6.80;;;;;;;14.71;100.00;95839.41;1011365;29;20040;-71
2021/06/27 00:47:35;;;;;;;8.00;7.13;;;;;;;14.70;100.00;95837.84;1022440;28;20497;-71
2021/06/27 00:48:06;;;;;;;7.95;6.80;;;;;;;14.71;100.00;95841.28;1023075;28;20082;-71
2021/06/27 00:48:36;;;;;;;7.68;6.88;;;;;;;14.61;100.00;95826.38;1026740;28;20106;-71
2021/06/27 00:49:07;;;;;;;7.93;7.13;;;;;;;14.71;100.00;95838.63;1024570;28;20422;-71
2021/06/27 00:49:37;;;;;;;8.63;7.22;;;;;;;14.70;100.00;95843.16;1026934;28;20508;-71
2021/06/27 00:50:11;;;;;;;8.05;7.25;;;;;;;14.60;100.00;95827.44;1022981;29;20019;-71
2021/06/27 00:50:50;;;;;;;7.75;6.95;;;;;;;14.69;100.00;95841.59;1020904;28;20024;-71
2021/06/27 00:51:22;;;;;;;7.13;6.43;;;;;;;14.68;100.00;95847.13;1018502;29;20110;-71
2021/06/27 00:51:52;;;;;;;8.95;6.80;;;;;;;14.68;100.00;95844.50;1014938;29;20512;-71
2021/06/27 00:52:23;;;;;;;8.15;7.35;;;;;;;14.68;100.00;95839.22;1015124;29;20020;-71
2021/06/27 00:52:56;;;;;;;9.73;7.22;;;;;;;14.61;100.00;95836.94;1014444;29;20763;-69
2021/06/27 00:53:27;;;;;;;9.27;6.95;;;;;;;14.66;100.00;95847.44;1015006;29;20107;-68
2021/06/27 00:54:01;;;;;;;8.55;7.10;;;;;;;14.66;100.00;95847.44;1016973;29;20052;-71
2021/06/27 00:54:31;;;;;;;7.80;7.00;;;;;;;14.65;100.00;95845.84;1023937;28;20466;-71
2021/06/27 00:55:02;;;;;;;10.60;7.40;;;;;;;14.60;100.00;95838.00;1022723;28;20549;-71
2021/06/27 00:55:33;;;;;;;9.70;7.50;;;;;;;14.60;100.00;95838.00;1019019;29;20509;-71
2021/06/27 00:56:04;;;;;;;7.88;7.07;;;;;;;14.65;100.00;95843.19;1015165;29;20022;-68
2021/06/27 00:56:34;;;;;;;9.60;7.00;;;;;;;14.65;100.00;95848.47;1016020;29;20024;-71
2021/06/27 00:57:05;;;;;;;9.20;7.32;;;;;;;14.64;100.00;95849.56;1019499;28;20034;-71
2021/06/27 00:57:36;;;;;;;7.97;7.18;;;;;;;14.56;100.00;95837.00;1018907;29;20024;-71
2021/06/27 00:58:07;;;;;;;8.02;7.22;;;;;;;14.61;100.00;95853.56;1011428;29;20035;-70
2021/06/27 00:58:37;;;;;;;11.23;7.07;;;;;;;14.58;100.00;95842.78;1015063;29;20024;-71
2021/06/27 00:59:08;;;;;;;9.40;7.35;;;;;;;14.61;100.00;95850.13;1019056;29;20082;-71
2021/06/27 00:59:38;;;;;;;8.50;7.57;;;;;;;14.59;100.00;95849.66;1018807;29;20030;-70
2021/06/27 01:00:17;;;;;;;9.05;7.53;;;;;;;14.59;100.00;95847.78;1010673;29;20041;-71
2021/06/27 01:00:47;;;;;;;8.07;7.25;;;;;;;14.53;100.00;95842.84;1011141;29;20036;-71
2021/06/27 01:01:17;;;;;;;8.70;7.80;;;;;;;14.56;100.00;95856.28;1015859;29;20545;-71
2021/06/27 01:01:50;;;;;;;8.70;7.80;;;;;;;14.55;100.00;95857.34;1014181;29;20052;-71
2021/06/27 01:02:21;;;;;;;8.45;7.55;;;;;;;14.54;100.00;95854.97;1019209;29;20095;-72
2021/06/27 01:02:52;;;;;;;9.38;7.70;;;;;;;14.47;100.00;95855.31;1019040;29;20027;-70
2021/06/27 01:03:22;;;;;;;9.90;8.18;;;;;;;14.48;100.00;95851.59;1017941;29;20063;-71
2021/06/27 01:03:53;;;;;;;9.98;7.50;;;;;;;14.48;100.00;95853.44;1018880;29;20063;-71
2021/06/27 01:04:24;;;;;;;8.25;7.45;;;;;;;14.47;100.00;95843.97;1020044;28;20039;-71
2021/06/27 01:04:55;;;;;;;8.77;7.88;;;;;;;14.43;100.00;95842.97;1013974;29;20028;-70
2021/06/27 01:05:27;;;;;;;10.07;8.02;;;;;;;14.49;100.00;95853.19;1014394;29;20039;-71
2021/06/27 01:05:58;;;;;;;9.98;8.20;;;;;;;14.50;100.00;95859.25;1014907;29;20028;-70
2021/06/27 01:06:28;;;;;;;11.10;7.93;;;;;;;14.49;100.00;95855.03;1018362;29;20043;-71
2021/06/27 01:06:59;;;;;;;9.40;7.70;;;;;;;14.50;100.00;95860.03;1010999;29;20041;-70
2021/06/27 01:07:29;;;;;;;9.90;7.63;;;;;;;14.42;100.00;95857.22;1015053;29;20111;-71
2021/06/27 01:08:00;;;;;;;8.75;7.85;;;;;;;14.45;100.00;95852.16;1018825;29;20095;-71
2021/06/27 01:08:31;;;;;;;8.88;7.97;;;;;;;14.48;100.00;95858.72;1029072;28;20015;-70
2021/06/27 01:09:01;;;;;;;9.93;8.02;;;;;;;14.49;100.00;95865.59;1018969;29;20032;-71
2021/06/27 01:09:32;;;;;;;10.70;8.18;;;;;;;14.45;100.00;95860.06;1018852;29;20020;-70
2021/06/27 01:10:03;;;;;;;8.50;7.53;;;;;;;14.36;100.00;95845.94;1013279;29;20110;-71
2021/06/27 01:10:33;;;;;;;9.18;8.18;;;;;;;14.43;100.00;95858.81;1015254;29;20116;-71
2021/06/27 01:11:04;;;;;;;13.00;8.18;;;;;;;14.43;100.00;95853.53;1019107;29;20043;-71
2021/06/27 01:11:35;;;;;;;11.38;9.07;;;;;;;14.45;100.00;95860.06;1022412;29;20535;-67
2021/06/27 01:12:06;;;;;;;11.40;8.43;;;;;;;14.36;100.00;95846.72;1014201;29;20021;-71
2021/06/27 01:12:36;;;;;;;10.55;7.85;;;;;;;14.39;100.00;95850.66;1019020;29;20413;-68
2021/06/27 01:13:07;;;;;;;9.93;8.40;;;;;;;14.39;100.00;95843.53;1010595;29;20103;-69
2021/06/27 01:13:38;;;;;;;9.95;8.43;;;;;;;14.45;100.00;95856.66;1009996;29;20065;-70
2021/06/27 01:14:08;;;;;;;8.82;7.93;;;;;;;14.44;100.00;95855.88;1014990;29;20031;-70
2021/06/27 01:14:39;;;;;;;10.27;7.93;;;;;;;14.42;100.00;95857.22;1015046;29;20024;-70
2021/06/27 01:15:10;;;;;;;10.90;7.70;;;;;;;14.42;100.00;95858.03;1014907;29;20016;-70
2021/06/27 01:15:40;;;;;;;9.02;8.10;;;;;;;14.33;100.00;95844.66;1011421;29;20044;-70
2021/06/27 01:16:10;;;;;;;9.45;7.68;;;;;;;14.38;100.00;95852.53;1015312;29;20078;-71
2021/06/27 01:16:43;;;;;;;8.90;7.85;;;;;;;14.25;100.00;95839.22;1019827;28;20111;-71
2021/06/27 01:17:14;;;;;;;12.90;7.68;;;;;;;14.35;100.00;95855.72;1021746;28;20039;-71
2021/06/27 01:17:46;;;;;;;9.13;8.10;;;;;;;14.35;100.00;95861.00;1019348;29;20031;-70
2021/06/27 01:18:16;;;;;;;9.68;8.05;;;;;;;14.28;100.00;95849.97;1019092;29;20071;-71
2021/06/27 01:18:51;;;;;;;8.88;7.97;;;;;;;14.34;100.00;95850.72;1018662;29;20050;-71
2021/06/27 01:19:22;;;;;;;11.10;8.13;;;;;;;14.35;100.00;95858.38;1019078;29;20027;-71
2021/06/27 01:19:52;;;;;;;8.82;7.90;;;;;;;14.36;100.00;95859.94;1019557;28;20104;-69
2021/06/27 01:20:27;;;;;;;12.07;8.50;;;;;;;14.37;100.00;95856.22;1023357;28;20032;-71
2021/06/27 01:20:58;;;;;;;8.82;7.45;;;;;;;14.37;100.00;95860.72;1022151;29;20035;-71
2021/06/27 01:21:28;;;;;;;9.35;7.93;;;;;;;14.35;100.00;95852.28;1023786;28;20031;-71
2021/06/27 01:21:59;;;;;;;9.85;8.20;;;;;;;14.35;100.00;95847.81;1019982;28;20034;-69
2021/06/27 01:22:30;;;;;;;9.65;8.30;;;;;;;14.35;100.00;95853.09;1017426;29;20028;-71
2021/06/27 01:23:01;;;;;;;9.57;8.57;;;;;;;14.26;100.00;95836.31;1018305;29;20031;-71
2021/06/27 01:23:32;;;;;;;9.50;8.50;;;;;;;14.33;100.00;95855.22;1017265;29;20028;-72
2021/06/27 01:24:03;;;;;;;9.30;8.30;;;;;;;14.33;100.00;95851.78;1022884;28;20047;-71
2021/06/27 01:24:34;;;;;;;9.38;7.88;;;;;;;14.27;100.00;95845.78;1019157;29;20035;-71
2021/06/27 01:25:05;;;;;;;12.98;8.30;;;;;;;14.33;100.00;95854.44;1023024;28;20050;-71
2021/06/27 01:25:37;;;;;;;9.20;8.30;;;;;;;14.22;100.00;95837.94;1022318;28;20063;-70
2021/06/27 01:26:08;;;;;;;8.90;7.43;;;;;;;14.33;100.00;95855.22;1019340;29;20028;-70
2021/06/27 01:26:38;;;;;;;9.90;8.00;;;;;;;14.31;100.00;95849.41;1018714;28;20510;-70
2021/06/27 01:27:08;;;;;;;9.77;8.15;;;;;;;14.31;100.00;95852.06;1019242;29;20084;-70
2021/06/27 01:27:39;;;;;;;9.55;8.55;;;;;;;14.25;100.00;95845.28;1018124;29;20035;-71
2021/06/27 01:28:10;;;;;;;11.10;9.23;;;;;;;14.29;100.00;95845.50;1018937;29;20477;-71
2021/06/27 01:28:40;;;;;;;8.68;7.80;;;;;;;14.32;100.00;95853.66;1016185;29;20581;-71
2021/06/27 01:29:10;;;;;;;9.77;8.55;;;;;;;14.32;100.00;95852.88;1014633;29;20040;-68
2021/06/27 01:29:41;;;;;;;10.07;8.20;;;;;;;14.32;100.00;95853.66;1019076;29;20087;-70
2021/06/27 01:30:12;;;;;;;10.88;8.63;;;;;;;14.32;100.00;95858.16;1014994;29;20036;-71
2021/06/27 01:30:42;;;;;;;9.45;8.35;;;;;;;14.29;100.00;95859.50;1015427;29;20028;-71
2021/06/27 01:31:13;;;;;;;10.57;8.73;;;;;;;14.30;100.00;95855.78;1014698;29;20072;-71
2021/06/27 01:31:44;;;;;;;10.13;8.88;;;;;;;14.29;100.00;95854.22;1014927;29;20118;-71
2021/06/27 01:32:14;;;;;;;10.48;9.15;;;;;;;14.29;100.00;95853.44;1014850;29;20074;-70
2021/06/27 01:32:46;;;;;;;10.45;8.90;;;;;;;14.28;100.00;95852.63;1014900;29;20126;-71
2021/06/27 01:33:18;;;;;;;9.25;8.30;;;;;;;14.24;100.00;95840.28;1018162;29;20032;-71
2021/06/27 01:33:49;;;;;;;11.05;8.93;;;;;;;14.27;100.00;95852.91;1022539;28;20552;-72
2021/06/27 01:34:19;;;;;;;9.88;8.48;;;;;;;14.22;100.00;95837.94;1023095;28;20114;-71
2021/06/27 01:34:50;;;;;;;11.82;9.00;;;;;;;14.28;100.00;95852.63;1019128;29;20050;-70
2021/06/27 01:35:22;;;;;;;9.93;9.00;;;;;;;14.25;100.00;95842.66;1014841;29;20039;-71
2021/06/27 01:35:53;;;;;;;12.80;9.27;;;;;;;14.22;100.00;95840.59;1019030;29;20461;-71
2021/06/27 01:36:23;;;;;;;12.57;9.15;;;;;;;14.26;100.00;95846.09;1018954;29;20024;-70
2021/06/27 01:36:54;;;;;;;10.23;8.98;;;;;;;14.22;100.00;95837.94;1019896;29;20028;-71
2021/06/27 01:37:24;;;;;;;10.75;9.02;;;;;;;14.27;100.00;95853.69;1015016;29;20036;-72
2021/06/27 01:37:56;;;;;;;10.45;9.35;;;;;;;14.28;100.00;95849.97;1009337;29;20036;-71
2021/06/27 01:38:27;;;;;;;11.38;9.65;;;;;;;14.27;100.00;95847.63;1015177;29;20111;-71
2021/06/27 01:38:57;;;;;;;13.05;9.93;;;;;;;14.27;100.00;95848.41;1011626;29;20035;-71
2021/06/27 01:39:27;;;;;;;11.95;9.82;;;;;;;14.25;100.00;95850.56;1018938;29;20027;-72
2021/06/27 01:39:58;;;;;;;12.15;9.77;;;;;;;14.25;100.00;95847.94;1019214;29;20024;-71
2021/06/27 01:40:33;;;;;;;11.48;9.55;;;;;;;14.24;100.00;95851.63;1019002;28;20083;-71
2021/06/27 01:41:05;;;;;;;12.10;8.98;;;;;;;14.23;100.00;95849.28;1018965;29;20123;-71
2021/06/27 01:41:35;;;;;;;10.40;9.30;;;;;;;14.21;100.00;95851.41;1015865;29;20039;-72
2021/06/27 01:42:06;;;;;;;10.38;9.23;;;;;;;14.12;100.00;95838.84;1015044;29;20102;-71
2021/06/27 01:42:36;;;;;;;10.65;9.52;;;;;;;14.18;100.00;95847.47;1011272;29;20025;-71
2021/06/27 01:43:15;;;;;;;11.55;9.65;;;;;;;14.21;100.00;95852.19;1009453;29;20020;-70
2021/06/27 01:43:45;;;;;;;13.43;9.75;;;;;;;14.21;100.00;95852.19;1014756;29;20067;-71
2021/06/27 01:44:17;;;;;;;13.13;9.63;;;;;;;14.20;100.00;95849.84;1025116;28;20027;-71
2021/06/27 01:44:47;;;;;;;11.52;9.95;;;;;;;14.21;100.00;95843.50;1013070;29;20028;-67
2021/06/27 01:45:24;;;;;;;11.45;10.32;;;;;;;14.20;100.00;95850.63;1012865;29;20034;-71
2021/06/27 01:45:56;;;;;;;11.98;9.50;;;;;;;14.18;100.00;95846.69;1015455;29;20043;-71
2021/06/27 01:46:26;;;;;;;11.88;10.15;;;;;;;14.19;100.00;95849.06;1018502;28;20020;-70
2021/06/27 01:46:57;;;;;;;11.15;9.90;;;;;;;14.16;100.00;95844.34;1022585;29;20023;-71
2021/06/27 01:47:28;;;;;;;11.23;9.23;;;;;;;14.18;100.00;95852.75;1022321;28;20104;-70
2021/06/27 01:48:01;;;;;;;11.25;10.05;;;;;;;14.16;100.00;95846.97;1018159;29;20521;-71
2021/06/27 01:48:32;;;;;;;10.55;9.45;;;;;;;14.17;100.00;95855.69;1015252;29;20020;-71
2021/06/27 01:49:02;;;;;;;11.57;9.68;;;;;;;14.09;100.00;95834.13;1013836;29;20143;-71
2021/06/27 01:49:33;;;;;;;10.88;9.55;;;;;;;14.16;100.00;95854.91;1010729;29;20502;-71
2021/06/27 01:50:05;;;;;;;12.10;10.27;;;;;;;14.06;100.00;95839.97;1018401;29;20474;-70
2021/06/27 01:50:36;;;;;;;11.77;10.25;;;;;;;14.14;100.00;95854.38;1014750;29;20650;-71
2021/06/27 01:51:07;;;;;;;12.20;10.25;;;;;;;14.12;100.00;95849.41;1011067;29;20047;-71
2021/06/27 01:51:38;;;;;;;12.70;10.27;;;;;;;14.14;100.00;95854.38;1014468;29;20593;-70
2021/06/27 01:52:09;;;;;;;11.50;9.95;;;;;;;14.13;100.00;95853.59;1007631;29;20025;-71
2021/06/27 01:52:39;;;;;;;12.80;10.50;;;;;;;14.11;100.00;95845.16;1014894;29;20024;-71
2021/06/27 01:53:11;;;;;;;11.48;10.20;;;;;;;14.14;100.00;95855.16;1016698;29;20019;-71
2021/06/27 01:53:41;;;;;;;14.45;10.00;;;;;;;14.15;100.00;95861.22;1014452;29;20522;-69
2021/06/27 01:54:12;;;;;;;12.43;10.00;;;;;;;14.14;100.00;95854.38;1014692;29;20028;-70
2021/06/27 01:54:42;;;;;;;10.45;9.38;;;;;;;14.14;100.00;95857.03;1015558;29;20024;-70
2021/06/27 01:55:13;;;;;;;11.50;10.23;;;;;;;14.13;100.00;95852.81;1018561;29;20028;-71
2021/06/27 01:55:43;;;;;;;11.68;10.02;;;;;;;14.08;100.00;95858.97;1010732;29;20024;-71
2021/06/27 01:56:14;;;;;;;11.52;10.23;;;;;;;14.13;100.00;95858.09;1014305;29;20533;-70
2021/06/27 01:56:44;;;;;;;11.18;9.65;;;;;;;14.12;100.00;95853.91;1018231;29;20103;-72
2021/06/27 01:57:19;;;;;;;10.55;9.45;;;;;;;14.04;100.00;95849.22;1018648;29;20032;-69
2021/06/27 01:57:51;;;;;;;18.42;9.90;;;;;;;14.12;100.00;95864.47;1014727;29;20114;-70
2021/06/27 01:58:22;;;;;;;11.98;9.60;;;;;;;14.12;100.00;95865.22;1017828;29;20127;-71
2021/06/27 01:58:52;;;;;;;11.55;9.77;;;;;;;14.05;100.00;95853.44;1018572;29;20123;-71
2021/06/27 01:59:23;;;;;;;11.55;10.35;;;;;;;14.03;100.00;95851.09;1018582;29;20099;-71
2021/06/27 01:59:53;;;;;;;11.35;10.15;;;;;;;14.08;100.00;95856.31;1014440;29;20035;-69
2021/06/27 02:00:25;;;;;;;12.18;9.65;;;;;;;14.11;100.00;95868.91;1014577;29;20568;-71
2021/06/27 02:00:56;;;;;;;11.40;10.20;;;;;;;14.07;100.00;95860.00;1015483;29;20024;-71
2021/06/27 02:01:36;;;;;;;13.32;10.27;;;;;;;14.12;100.00;95864.47;1011460;29;20272;-71
2021/06/27 02:02:07;;;;;;;10.27;9.18;;;;;;;14.10;100.00;95858.66;1014589;29;20104;-70
2021/06/27 02:02:37;;;;;;;11.60;9.20;;;;;;;14.10;100.00;95861.31;1014335;29;20044;-69
2021/06/27 02:03:15;;;;;;;11.07;9.38;;;;;;;14.10;100.00;95859.44;1015261;29;20056;-69
2021/06/27 02:03:50;;;;;;;11.18;9.95;;;;;;;14.05;100.00;95850.78;1014943;29;20096;-70
2021/06/27 02:04:25;;;;;;;11.23;10.02;;;;;;;14.08;100.00;95856.31;1019180;29;20035;-71
2021/06/27 02:04:56;;;;;;;14.05;9.88;;;;;;;14.04;100.00;95857.16;1020411;28;20473;-72
2021/06/27 02:05:28;;;;;;;12.27;9.30;;;;;;;14.01;100.00;95847.16;1019370;29;20031;-71
2021/06/27 02:05:59;;;;;;;11.65;9.82;;;;;;;14.03;100.00;95851.09;1011440;29;20044;-71
2021/06/27 02:06:30;;;;;;;17.23;9.98;;;;;;;14.07;100.00;95864.50;1014197;29;20118;-71
2021/06/27 02:07:02;;;;;;;15.35;10.45;;;;;;;14.06;100.00;95855.03;1011836;29;20036;-71
2021/06/27 02:07:36;;;;;;;10.65;9.30;;;;;;;14.08;100.00;95858.16;1015757;29;20054;-72
2021/06/27 02:08:06;;;;;;;11.70;10.05;;;;;;;14.08;100.00;95858.97;1019248;29;20023;-72
2021/06/27 02:08:39;;;;;;;12.70;9.98;;;;;;;14.01;100.00;95852.44;1018554;29;20040;-71
2021/06/27 02:09:11;;;;;;;12.18;9.98;;;;;;;14.07;100.00;95861.84;1015350;29;20035;-71
2021/06/27 02:09:42;;;;;;;11.65;9.55;;;;;;;14.01;100.00;95852.44;1019862;29;20070;-71
2021/06/27 02:10:15;;;;;;;10.73;9.50;;;;;;;13.99;100.00;95854.56;1019728;29;20027;-72
2021/06/27 02:10:46;;;;;;;19.92;9.73;;;;;;;13.98;100.00;95852.97;1015839;29;20039;-72
2021/06/27 02:11:18;;;;;;;12.93;8.93;;;;;;;14.00;100.00;95853.50;1015397;29;20036;-71
2021/06/27 02:11:55;;;;;;;11.95;9.82;;;;;;;14.05;100.00;95858.69;1011701;29;20032;-71
2021/06/27 02:12:30;;;;;;;10.60;9.15;;;;;;;14.06;100.00;95865.56;1015368;29;20430;-71
2021/06/27 02:13:00;;;;;;;13.48;9.80;;;;;;;13.96;100.00;95852.50;1014812;29;20032;-71
2021/06/27 02:13:31;;;;;;;12.65;10.20;;;;;;;13.96;100.00;95855.13;1014187;29;20060;-72
2021/06/27 02:14:03;;;;;;;11.75;9.27;;;;;;;13.94;100.00;95849.34;1020772;29;20498;-71
2021/06/27 02:14:33;;;;;;;10.70;9.60;;;;;;;13.95;100.00;95846.44;1019258;29;20034;-71
2021/06/27 02:15:07;;;;;;;11.48;9.10;;;;;;;14.03;100.00;95868.78;1019428;28;20047;-71
2021/06/27 02:15:38;;;;;;;10.95;9.25;;;;;;;13.99;100.00;95860.63;1018447;29;20034;-71
2021/06/27 02:16:08;;;;;;;9.55;8.55;;;;;;;13.98;100.00;95858.25;1019318;29;20285;-71
2021/06/27 02:16:39;;;;;;;12.48;9.07;;;;;;;13.99;100.00;95862.50;1022592;28;20027;-71
2021/06/27 02:17:09;;;;;;;12.65;9.07;;;;;;;13.97;100.00;95856.69;1019327;29;20103;-71
2021/06/27 02:18:02;;;;;;;10.82;9.63;;;;;;;13.92;100.00;95849.63;1019223;29;20421;-71
2021/06/27 02:18:37;;;;;;;12.38;9.57;;;;;;;13.94;100.00;95851.97;1019076;29;20571;-71
2021/06/27 02:19:07;;;;;;;11.80;9.65;;;;;;;13.99;100.00;95854.56;1026992;28;20037;-72
2021/06/27 02:19:38;;;;;;;10.57;9.25;;;;;;;14.00;100.00;95856.13;1027183;28;20062;-71
2021/06/27 02:20:09;;;;;;;10.13;9.02;;;;;;;14.00;100.00;95861.41;1025522;28;20026;-71
2021/06/27 02:20:39;;;;;;;10.32;8.75;;;;;;;13.99;100.00;95863.28;1023124;29;20030;-71
2021/06/27 02:21:12;;;;;;;10.95;9.07;;;;;;;14.00;100.00;95861.41;1019225;29;20043;-71
2021/06/27 02:21:42;;;;;;;9.73;8.65;;;;;;;13.93;100.00;95850.41;1019461;29;20059;-70
2021/06/27 02:22:15;;;;;;;10.20;9.10;;;;;;;13.97;100.00;95865.41;1019464;29;20032;-71
2021/06/27 02:22:46;;;;;;;10.18;9.07;;;;;;;13.93;100.00;95867.03;1023154;29;20037;-71
2021/06/27 02:23:16;;;;;;;10.40;8.90;;;;;;;13.91;100.00;95856.75;1022485;28;20063;-68
2021/06/27 02:23:49;;;;;;;12.02;9.27;;;;;;;13.89;100.00;95855.47;1030960;28;20105;-70
2021/06/27 02:24:20;;;;;;;10.13;9.02;;;;;;;13.96;100.00;95870.97;1023194;29;20023;-71
2021/06/27 02:24:50;;;;;;;9.68;8.68;;;;;;;13.96;100.00;95868.31;1019300;29;20031;-71
2021/06/27 02:25:21;;;;;;;10.40;9.13;;;;;;;13.97;100.00;95869.88;1018648;29;20055;-71
2021/06/27 02:25:51;;;;;;;11.88;9.88;;;;;;;13.96;100.00;95868.31;1019399;28;20036;-71